Time;durP1;ratioP1;P1;durP2;ratioP2;P2;SDS_P1;SDS_P2;PMS_P1;PMS_P2;Temp;Humidity;BMP_temperature;BMP_pressure;BME280_temperature;BME280_humidity;BME280_pressure;Samples;Min_cycle;Max_cycle;Signal;HPM_P1;HPM_P2
2024/01/04 00:01:50;;;;;;;2.73;1.73;;;;;;;13.28;51.26;97231.97;6954987;28;20238;-83
2024/01/04 00:05:12;;;;;;;2.90;2.10;;;;;;;13.26;51.88;97240.34;6961153;28;20293;-84
2024/01/04 00:08:33;;;;;;;2.27;2.07;;;;;;;13.98;50.36;97235.09;6966401;28;20364;-83
2024/01/04 00:11:55;;;;;;;3.00;2.27;;;;;;;13.42;52.39;97239.41;6969903;28;20299;-83
2024/01/04 00:15:18;;;;;;;3.30;1.83;;;;;;;13.31;52.96;97236.88;6969814;28;20285;-82
2024/01/04 00:18:40;;;;;;;4.57;2.00;;;;;;;13.73;51.88;97237.66;6968334;28;20361;-82
2024/01/04 00:22:01;;;;;;;2.80;1.77;;;;;;;13.34;52.99;97228.25;6972717;28;20297;-83
2024/01/04 00:25:23;;;;;;;4.53;2.03;;;;;;;13.24;53.57;97238.97;6974836;28;20316;-83
2024/01/04 00:28:44;;;;;;;3.27;1.90;;;;;;;13.52;53.04;97241.34;6975252;28;20837;-83
2024/01/04 00:32:07;;;;;;;1.80;1.70;;;;;;;13.28;53.58;97256.34;6975526;28;20296;-83
2024/01/04 00:35:28;;;;;;;2.07;1.87;;;;;;;13.43;53.71;97259.97;6974448;28;20209;-81
2024/01/04 00:38:50;;;;;;;4.03;1.93;;;;;;;13.42;53.98;97276.47;6973579;28;20793;-82
2024/01/04 00:42:11;;;;;;;1.87;1.60;;;;;;;13.20;54.77;97281.16;6973138;28;20210;-82
2024/01/04 00:45:33;;;;;;;3.90;1.90;;;;;;;13.34;54.76;97274.25;6973623;28;20293;-81
2024/01/04 00:48:56;;;;;;;3.10;1.80;;;;;;;13.68;53.52;97270.97;6972898;28;20234;-82
2024/01/04 00:52:17;;;;;;;4.27;2.10;;;;;;;13.06;55.86;97275.38;6974046;28;20685;-82
2024/01/04 00:55:39;;;;;;;5.13;2.30;;;;;;;13.09;54.81;97274.06;6973237;28;20269;-82
2024/01/04 00:59:00;;;;;;;4.57;2.33;;;;;;;12.96;55.64;97260.94;6971969;28;20271;-83
2024/01/04 01:02:22;;;;;;;1.80;1.70;;;;;;;13.00;55.44;97294.53;6972650;28;20841;-82
2024/01/04 01:05:45;;;;;;;4.17;2.00;;;;;;;13.11;55.38;97301.66;6972745;28;20309;-81
2024/01/04 01:09:06;;;;;;;4.30;1.97;;;;;;;12.97;55.69;97290.44;6972127;28;20563;-81
2024/01/04 01:12:28;;;;;;;3.17;2.00;;;;;;;13.07;55.31;97297.81;6972892;28;20293;-81
2024/01/04 01:15:49;;;;;;;4.33;2.17;;;;;;;12.99;55.82;97311.84;6971321;28;20344;-82
2024/01/04 01:19:11;;;;;;;4.93;2.10;;;;;;;12.43;58.03;97309.56;6970799;28;20826;-81
2024/01/04 01:22:33;;;;;;;3.57;2.17;;;;;;;12.78;58.29;97316.19;6972848;28;20226;-82
2024/01/04 01:25:55;;;;;;;3.03;1.97;;;;;;;13.11;57.67;97315.19;6973781;28;20263;-82
2024/01/04 01:29:17;;;;;;;5.10;2.10;;;;;;;13.15;57.34;97327.94;6972924;28;20304;-82
2024/01/04 01:32:40;;;;;;;1.60;1.50;;;;;;;13.22;57.22;97306.09;6954412;28;20796;-81
2024/01/04 01:36:02;;;;;;;3.90;1.93;;;;;;;12.63;58.14;97309.81;6970712;28;20593;-81
2024/01/04 01:39:25;;;;;;;2.47;1.70;;;;;;;12.58;59.20;97326.78;6968653;28;20229;-82
2024/01/04 01:42:48;;;;;;;4.30;1.97;;;;;;;12.52;58.71;97300.75;6958501;28;20223;-81
2024/01/04 01:46:09;;;;;;;2.87;2.10;;;;;;;12.35;58.19;97291.09;6962952;28;20209;-81
2024/01/04 01:49:31;;;;;;;4.53;2.20;;;;;;;12.17;59.44;97321.16;6950441;28;20231;-81
2024/01/04 01:52:53;;;;;;;2.67;1.63;;;;;;;12.01;59.31;97330.94;6945464;28;20294;-80
2024/01/04 01:56:16;;;;;;;1.97;1.80;;;;;;;12.55;58.10;97342.69;6972447;28;20214;-81
2024/01/04 01:59:37;;;;;;;2.20;2.10;;;;;;;12.41;58.03;97349.56;6971344;28;20633;-81
2024/01/04 02:03:00;;;;;;;1.77;1.67;;;;;;;12.40;58.93;97372.25;6972525;28;20787;-82
2024/01/04 02:06:21;;;;;;;3.03;2.00;;;;;;;11.94;60.11;97367.28;6972938;28;20720;-81
2024/01/04 02:09:43;;;;;;;2.67;1.50;;;;;;;12.07;59.85;97391.25;6972314;28;20439;-81
2024/01/04 02:13:06;;;;;;;2.00;1.63;;;;;;;11.65;60.21;97363.06;6970170;28;20198;-81
2024/01/04 02:16:28;;;;;;;1.97;1.87;;;;;;;11.88;60.65;97354.78;6970709;28;20262;-83
2024/01/04 02:19:49;;;;;;;2.23;1.70;;;;;;;11.87;58.72;97380.16;6971875;28;20219;-83
2024/01/04 02:23:16;;;;;;;1.93;1.60;;;;;;;11.35;60.12;97362.56;6973674;28;20324;-84
2024/01/04 02:26:38;;;;;;;1.57;1.47;;;;;;;12.01;59.04;97378.72;6973997;28;20202;-83
2024/01/04 02:29:59;;;;;;;1.70;1.40;;;;;;;12.11;58.49;97387.00;6973187;28;20226;-84
2024/01/04 02:33:21;;;;;;;1.40;1.40;;;;;;;12.03;58.18;97411.72;6972634;28;20220;-84
2024/01/04 02:36:42;;;;;;;1.87;1.80;;;;;;;12.22;57.67;97405.78;6972876;28;20775;-84
2024/01/04 02:40:07;;;;;;;1.57;1.47;;;;;;;12.10;57.71;97431.28;6972918;28;20316;-84
2024/01/04 02:43:28;;;;;;;2.07;1.47;;;;;;;11.65;58.14;97431.38;6945618;28;20815;-84
2024/01/04 02:46:50;;;;;;;1.43;1.30;;;;;;;12.16;57.67;97422.97;6946910;28;20353;-84
2024/01/04 02:50:13;;;;;;;1.30;1.30;;;;;;;11.86;57.65;97406.34;6959009;28;20360;-84
2024/01/04 02:53:35;;;;;;;1.40;1.30;;;;;;;11.54;58.67;97423.31;6971699;28;20206;-83
2024/01/04 02:56:58;;;;;;;1.50;1.40;;;;;;;11.39;58.54;97428.47;6944158;28;20225;-84
2024/01/04 03:00:20;;;;;;;1.53;1.43;;;;;;;11.49;58.07;97421.38;6945293;28;20346;-84
2024/01/04 03:03:42;;;;;;;1.27;1.27;;;;;;;11.65;57.53;97409.78;6960522;28;20211;-84
2024/01/04 03:07:04;;;;;;;1.43;1.40;;;;;;;11.75;56.58;97392.94;6966924;28;20203;-85
2024/01/04 03:10:25;;;;;;;1.33;1.33;;;;;;;11.67;57.36;97425.72;6987142;28;20262;-84
2024/01/04 03:13:48;;;;;;;1.87;1.57;;;;;;;11.76;56.12;97435.88;6945727;28;20300;-83
2024/01/04 03:17:10;;;;;;;1.53;1.43;;;;;;;11.57;56.70;97422.84;6943549;28;20310;-84
2024/01/04 03:20:31;;;;;;;1.60;1.50;;;;;;;12.05;56.12;97431.19;6944116;28;20234;-85
2024/01/04 03:23:53;;;;;;;1.30;1.30;;;;;;;11.95;56.12;97431.03;6944253;28;20230;-84
2024/01/04 03:27:14;;;;;;;1.53;1.43;;;;;;;11.86;56.57;97437.94;6947927;28;20660;-84
2024/01/04 03:30:37;;;;;;;1.80;1.70;;;;;;;11.74;56.28;97439.91;6957132;28;20330;-84
2024/01/04 03:33:59;;;;;;;2.40;1.40;;;;;;;11.53;56.99;97425.22;6944386;28;20339;-84
2024/01/04 03:37:20;;;;;;;1.60;1.40;;;;;;;11.72;57.24;97434.75;6944585;28;20673;-84
2024/01/04 03:40:42;;;;;;;1.43;1.43;;;;;;;11.82;56.37;97421.41;6945150;28;20724;-84
2024/01/04 03:44:04;;;;;;;1.23;1.20;;;;;;;11.65;56.49;97425.16;6944578;28;20287;-84
2024/01/04 03:47:27;;;;;;;1.70;1.57;;;;;;;11.63;57.53;97438.91;6965644;28;20214;-85
2024/01/04 03:50:49;;;;;;;1.50;1.40;;;;;;;11.99;56.87;97437.59;6971271;28;20364;-85
2024/01/04 03:54:10;;;;;;;1.33;1.33;;;;;;;11.51;58.08;97435.41;6971057;28;20202;-84
2024/01/04 03:57:32;;;;;;;1.37;1.37;;;;;;;11.71;57.76;97449.31;6961571;28;20824;-83
2024/01/04 04:00:54;;;;;;;1.73;1.33;;;;;;;11.77;58.39;97451.03;6985142;28;20198;-84
2024/01/04 04:04:17;;;;;;;1.80;1.70;;;;;;;11.79;58.39;97450.75;6982353;28;20267;-84
2024/01/04 04:07:38;;;;;;;3.13;2.10;;;;;;;11.43;58.81;97408.00;6981075;28;20230;-84
2024/01/04 04:11:00;;;;;;;1.40;1.40;;;;;;;12.24;57.19;97451.47;6978692;28;20415;-84
2024/01/04 04:14:21;;;;;;;1.50;1.40;;;;;;;11.84;57.65;97427.38;6976068;28;20615;-83
2024/01/04 04:17:43;;;;;;;1.70;1.60;;;;;;;11.99;58.25;97451.91;6956339;28;20268;-84
2024/01/04 04:21:06;;;;;;;1.60;1.50;;;;;;;12.12;57.43;97458.84;6948834;28;20209;-84
2024/01/04 04:24:27;;;;;;;1.30;1.30;;;;;;;12.11;57.46;97465.31;6949052;28;20733;-84
2024/01/04 04:27:49;;;;;;;3.03;1.50;;;;;;;12.13;58.08;97469.44;6947609;28;20207;-84
2024/01/04 04:31:13;;;;;;;1.70;1.60;;;;;;;11.94;58.42;97486.13;6963117;28;20299;-83
2024/01/04 04:34:34;;;;;;;1.57;1.40;;;;;;;11.95;58.33;97482.34;6975076;28;20293;-84
2024/01/04 04:37:57;;;;;;;2.40;1.40;;;;;;;11.95;58.43;97479.66;6975783;28;20331;-84
2024/01/04 04:41:19;;;;;;;3.57;1.77;;;;;;;12.26;57.55;97466.38;6976026;28;20347;-84
2024/01/04 04:44:40;;;;;;;1.60;1.50;;;;;;;12.24;57.66;97471.22;6962240;28;20226;-85
2024/01/04 04:48:02;;;;;;;1.73;1.63;;;;;;;12.19;58.00;97484.66;6946518;28;20303;-85
2024/01/04 04:51:25;;;;;;;1.40;1.40;;;;;;;11.86;58.79;97476.53;6968542;28;20217;-84
2024/01/04 04:54:48;;;;;;;2.07;1.67;;;;;;;12.09;59.29;97487.19;6969300;28;20203;-85
2024/01/04 04:58:09;;;;;;;2.63;1.67;;;;;;;12.11;59.31;97495.03;6944745;28;20321;-83
2024/01/04 05:01:31;;;;;;;1.93;1.73;;;;;;;12.01;59.46;97492.19;6970577;28;20206;-84
2024/01/04 05:04:52;;;;;;;1.83;1.67;;;;;;;12.14;59.60;97500.78;6973244;28;20753;-85
2024/01/04 05:08:15;;;;;;;3.03;1.80;;;;;;;12.31;59.45;97498.06;6959846;28;20243;-84
2024/01/04 05:11:37;;;;;;;2.73;1.97;;;;;;;12.03;60.44;97509.78;6964121;28;20283;-84
2024/01/04 05:14:59;;;;;;;2.90;1.67;;;;;;;12.14;60.35;97529.66;6978185;28;20252;-84
2024/01/04 05:18:20;;;;;;;2.77;1.70;;;;;;;11.92;61.31;97520.66;6957515;28;20265;-84
2024/01/04 05:21:42;;;;;;;1.90;1.60;;;;;;;12.48;60.08;97525.88;6969205;28;20295;-84
2024/01/04 05:25:04;;;;;;;3.73;1.97;;;;;;;12.08;60.85;97538.75;6966372;28;20246;-85
2024/01/04 05:28:27;;;;;;;2.10;1.90;;;;;;;12.07;60.77;97542.50;6964117;28;20308;-84
2024/01/04 05:31:48;;;;;;;2.57;1.70;;;;;;;12.04;60.78;97538.41;6972616;28;20214;-84
2024/01/04 05:35:11;;;;;;;1.90;1.60;;;;;;;12.06;60.54;97555.22;6946012;28;20207;-84
2024/01/04 05:38:33;;;;;;;2.13;1.93;;;;;;;12.25;59.68;97550.38;6967064;28;20756;-84
2024/01/04 05:41:55;;;;;;;2.27;1.90;;;;;;;11.91;60.84;97556.81;6974158;28;20266;-84
2024/01/04 05:45:18;;;;;;;2.07;1.77;;;;;;;12.33;59.71;97556.19;6974486;28;20249;-84
2024/01/04 05:48:39;;;;;;;2.20;1.90;;;;;;;12.21;59.86;97568.97;6971078;28;20249;-85
2024/01/04 05:52:01;;;;;;;2.47;1.80;;;;;;;12.23;59.80;97558.72;6968304;28;20260;-84
2024/01/04 05:55:22;;;;;;;3.53;1.80;;;;;;;12.20;59.79;97577.31;6973190;28;20352;-84
2024/01/04 05:58:44;;;;;;;1.63;1.53;;;;;;;12.50;58.99;97581.34;6969574;28;20230;-84
2024/01/04 06:02:07;;;;;;;1.90;1.70;;;;;;;12.28;59.01;97566.13;6966592;28;20352;-84
2024/01/04 06:05:28;;;;;;;2.30;1.53;;;;;;;12.20;59.75;97585.41;6973944;28;20321;-84
2024/01/04 06:08:50;;;;;;;2.00;1.60;;;;;;;12.03;59.33;97608.91;6971934;28;20314;-84
2024/01/04 06:12:11;;;;;;;2.13;1.60;;;;;;;11.75;61.28;97600.84;6972827;28;20255;-84
2024/01/04 06:15:33;;;;;;;2.23;1.63;;;;;;;12.23;58.92;97606.56;6976442;28;20340;-84
2024/01/04 06:18:55;;;;;;;1.97;1.80;;;;;;;11.88;60.21;97614.03;6970957;28;20264;-84
2024/01/04 06:22:17;;;;;;;3.27;1.47;;;;;;;12.38;58.87;97621.16;6970744;28;20834;-84
2024/01/04 06:25:38;;;;;;;1.70;1.60;;;;;;;12.36;58.62;97625.16;6958496;28;20321;-84
2024/01/04 06:29:00;;;;;;;1.63;1.53;;;;;;;12.33;58.32;97631.88;6960140;28;20290;-84
2024/01/04 06:32:21;;;;;;;3.37;2.10;;;;;;;12.26;58.80;97646.59;6984294;28;20688;-84
2024/01/04 06:35:44;;;;;;;2.10;1.60;;;;;;;12.04;58.55;97605.16;6970056;28;20203;-84
2024/01/04 06:39:07;;;;;;;2.07;1.77;;;;;;;12.48;57.94;97645.66;6963746;28;20309;-85
2024/01/04 06:46:47;;;;;;;1.80;1.70;;;;;;;12.13;58.98;97647.75;6958906;28;20627;-84
2024/01/04 06:50:09;;;;;;;1.90;1.80;;;;;;;12.34;57.89;97657.81;6972018;28;20222;-84
2024/01/04 06:53:32;;;;;;;4.03;1.90;;;;;;;11.96;59.26;97662.25;6955102;28;20298;-84
2024/01/04 06:56:54;;;;;;;2.93;1.80;;;;;;;12.32;58.70;97669.94;6942558;28;20267;-84
2024/01/04 07:00:16;;;;;;;3.33;1.93;;;;;;;12.66;57.75;97688.66;6944708;28;20369;-85
2024/01/04 07:03:39;;;;;;;2.03;1.80;;;;;;;12.31;58.15;97684.53;6965768;28;20296;-84
2024/01/04 07:07:01;;;;;;;4.07;2.10;;;;;;;12.11;58.41;97676.84;6961909;28;20210;-84
2024/01/04 07:10:24;;;;;;;2.97;1.80;;;;;;;12.27;58.33;97694.19;6969155;28;20279;-84
2024/01/04 07:13:46;;;;;;;6.93;2.10;;;;;;;12.19;57.82;97702.69;6969445;28;20724;-84
2024/01/04 07:17:09;;;;;;;3.13;2.10;;;;;;;11.68;59.19;97691.97;6969473;28;20253;-85
2024/01/04 07:24:15;;;;;;;5.13;2.20;;;;;;;11.99;58.26;97724.72;6968676;28;20744;-86
2024/01/04 07:27:38;;;;;;;2.40;2.20;;;;;;;12.26;57.80;97724.97;6969133;28;20199;-83
2024/01/04 07:31:00;;;;;;;4.93;2.20;;;;;;;11.87;58.96;97737.44;6970195;28;20289;-84
2024/01/04 07:34:22;;;;;;;2.10;1.90;;;;;;;11.89;58.50;97726.41;6971756;28;20296;-84
2024/01/04 07:37:44;;;;;;;3.90;2.30;;;;;;;11.75;59.03;97741.25;6968078;28;20294;-84
2024/01/04 07:41:06;;;;;;;4.27;2.00;;;;;;;11.85;58.42;97747.66;6965659;28;20330;-84
2024/01/04 07:44:29;;;;;;;4.90;2.20;;;;;;;11.86;58.10;97724.19;6961214;28;20249;-81
2024/01/04 07:47:51;;;;;;;2.97;2.10;;;;;;;12.16;57.35;97743.69;6980332;28;20261;-84
2024/01/04 07:51:12;;;;;;;3.50;2.00;;;;;;;11.76;57.59;97732.88;6977121;28;20237;-88
2024/01/04 07:58:30;;;;;;;2.93;2.00;;;;;;;11.72;57.86;97734.44;6966959;28;20392;-87
2024/01/04 08:01:54;;;;;;;4.50;2.23;;;;;;;11.74;56.58;97680.19;6978963;28;20241;-86
2024/01/04 08:05:16;;;;;;;2.60;2.40;;;;;;;10.97;57.03;97618.59;6967301;28;20237;-85
2024/01/04 08:08:38;;;;;;;3.10;2.00;;;;;;;12.10;57.03;97755.47;6943190;28;20235;-85
2024/01/04 08:11:59;;;;;;;2.23;1.70;;;;;;;12.18;56.47;97764.03;6942035;28;20248;-85
2024/01/04 08:15:21;;;;;;;3.63;1.90;;;;;;;12.26;56.08;97765.50;6972994;28;20206;-84
2024/01/04 08:18:43;;;;;;;2.47;1.80;;;;;;;12.54;54.83;97774.44;6970380;28;20309;-85
2024/01/04 08:22:05;;;;;;;3.07;1.77;;;;;;;12.20;55.16;97782.66;6967956;28;20237;-85
2024/01/04 08:25:27;;;;;;;2.00;1.80;;;;;;;12.17;55.71;97780.47;6967798;28;20325;-84
2024/01/04 08:33:12;;;;;;;3.47;1.80;;;;;;;11.91;55.20;97789.09;6857944;28;20223;-85
2024/01/04 08:36:35;;;;;;;2.77;2.40;;;;;;;12.54;54.09;97789.84;6967975;28;20767;-86
2024/01/04 08:39:56;;;;;;;4.30;2.10;;;;;;;12.73;53.71;97797.50;6966524;28;20312;-87
2024/01/04 08:43:18;;;;;;;4.27;2.07;;;;;;;12.23;53.69;97710.03;6945469;28;20735;-88
2024/01/04 08:46:40;;;;;;;3.07;2.17;;;;;;;14.35;49.82;97786.19;6946482;28;20764;-86
2024/01/04 08:50:01;;;;;;;4.47;2.40;;;;;;;15.13;46.24;97697.69;6958666;28;20234;-83
2024/01/04 08:53:24;;;;;;;3.97;2.20;;;;;;;15.32;46.56;97783.13;6947961;28;20295;-83
2024/01/04 08:56:46;;;;;;;7.03;2.30;;;;;;;14.24;48.83;97789.84;6957667;28;20316;-83
2024/01/04 09:00:10;;;;;;;3.50;2.23;;;;;;;14.21;48.71;97784.97;6957728;28;20743;-83
2024/01/04 09:03:32;;;;;;;2.40;2.20;;;;;;;13.59;50.07;97787.06;6972170;28;20203;-83
2024/01/04 09:06:53;;;;;;;3.43;2.27;;;;;;;13.52;50.80;97805.34;6953904;28;20322;-83
2024/01/04 09:10:16;;;;;;;2.53;2.20;;;;;;;12.91;52.31;97818.94;6973444;28;20260;-83
2024/01/04 09:13:37;;;;;;;2.80;2.00;;;;;;;13.07;51.96;97826.28;6973792;28;20233;-83
2024/01/04 09:16:59;;;;;;;2.63;2.10;;;;;;;12.87;52.93;97816.97;6978021;28;20210;-84
2024/01/04 09:20:20;;;;;;;3.00;2.27;;;;;;;12.91;52.36;97835.16;6976231;28;20232;-85
2024/01/04 09:23:42;;;;;;;4.17;2.07;;;;;;;12.82;52.37;97838.50;6977101;28;20236;-86
2024/01/04 09:27:05;;;;;;;3.97;2.30;;;;;;;12.83;52.28;97829.31;6977425;28;20228;-86
2024/01/04 09:30:31;;;;;;;3.60;1.93;;;;;;;12.80;52.73;97846.06;6980015;28;20716;-82
2024/01/04 09:41:16;;;;;;;3.57;2.10;;;;;;;13.69;50.25;97849.50;6930377;28;20251;-82
2024/01/04 09:44:39;;;;;;;2.83;1.93;;;;;;;13.27;50.09;97825.81;6979399;28;20367;-82
2024/01/04 09:48:01;;;;;;;4.53;2.10;;;;;;;13.86;48.92;97839.47;6977739;28;20230;-83
2024/01/04 09:51:23;;;;;;;2.60;2.40;;;;;;;13.88;47.73;97834.63;6973376;28;20264;-83
2024/01/04 09:54:46;;;;;;;5.70;2.40;;;;;;;13.47;49.62;97864.88;6975829;28;20283;-83
2024/01/04 09:58:10;;;;;;;6.37;2.63;;;;;;;13.26;50.01;97833.09;6973813;28;20230;-82
2024/01/04 10:01:35;;;;;;;8.03;2.53;;;;;;;14.15;48.29;97873.47;6971191;28;20250;-82
2024/01/04 10:04:58;;;;;;;3.57;2.30;;;;;;;14.14;48.30;97865.59;6947195;28;20265;-81
2024/01/04 10:08:24;;;;;;;4.87;1.80;;;;;;;14.29;48.23;97868.56;6943872;28;20231;-83
2024/01/04 10:11:54;;;;;;;3.80;2.00;;;;;;;13.35;49.28;97882.25;6945834;28;20230;-85
2024/01/04 10:15:17;;;;;;;4.07;1.83;;;;;;;13.42;49.93;97861.25;6974137;28;20287;-85
2024/01/04 10:18:40;;;;;;;3.90;2.13;;;;;;;14.11;49.06;97895.91;6973800;28;20277;-84
2024/01/04 10:22:27;;;;;;;3.40;2.10;;;;;;;13.94;48.62;97901.38;6973209;28;20329;-86
2024/01/04 10:33:50;;;;;;;3.47;2.20;;;;;;;12.84;51.00;97847.19;8147006;22;20325;-88
2024/01/04 10:37:32;;;;;;;7.57;2.47;;;;;;;12.86;49.97;97816.13;6970817;28;20573;-86
2024/01/04 10:41:01;;;;;;;4.07;3.77;;;;;;;12.88;51.56;97906.00;6960180;28;20222;-84
2024/01/04 10:44:23;;;;;;;3.03;1.80;;;;;;;12.91;52.53;97932.56;6973819;28;20205;-83
2024/01/04 10:47:48;;;;;;;4.67;2.10;;;;;;;12.46;54.59;97934.31;6967222;28;20280;-84
2024/01/04 10:51:33;;;;;;;4.10;2.20;;;;;;;12.59;56.43;97949.47;6972452;28;20247;-84
2024/01/04 11:04:03;;;;;;;4.37;2.87;;;;;;;12.59;58.55;97938.66;6865782;28;20340;-83
2024/01/04 11:07:26;;;;;;;3.50;2.13;;;;;;;12.74;57.63;97944.38;6870633;28;20299;-83
2024/01/04 11:10:50;;;;;;;3.20;2.10;;;;;;;13.48;56.39;97934.22;6973068;28;20258;-83
2024/01/04 11:14:13;;;;;;;3.73;2.20;;;;;;;12.57;56.81;97940.78;6964106;28;20210;-84
2024/01/04 11:17:46;;;;;;;2.83;2.27;;;;;;;13.63;55.75;97942.56;6933236;28;20213;-84
2024/01/04 11:21:20;;;;;;;4.67;2.00;;;;;;;13.53;54.05;97944.28;6957439;28;20293;-83
2024/01/04 11:24:53;;;;;;;1.97;1.70;;;;;;;13.82;53.72;97943.16;6971668;28;20229;-84
2024/01/04 11:28:15;;;;;;;1.60;1.50;;;;;;;13.64;53.23;97932.56;6966795;28;20232;-83
2024/01/04 11:31:42;;;;;;;2.30;1.70;;;;;;;13.52;52.41;97938.03;6972109;28;20293;-84
2024/01/04 11:35:07;;;;;;;1.97;1.70;;;;;;;13.46;53.61;97939.03;6963377;28;20222;-85
2024/01/04 11:38:33;;;;;;;2.97;1.90;;;;;;;13.64;52.26;97927.97;6972122;28;20312;-83
2024/01/04 11:41:56;;;;;;;3.37;1.77;;;;;;;13.61;52.51;97933.03;6974154;28;20203;-83
2024/01/04 11:45:18;;;;;;;4.70;1.80;;;;;;;12.87;52.63;97800.72;6973541;28;20241;-85
2024/01/04 11:48:48;;;;;;;3.60;1.67;;;;;;;13.84;52.52;97916.63;6966720;28;20226;-82
2024/01/04 11:52:09;;;;;;;6.70;2.77;;;;;;;13.94;51.98;97927.63;6972689;28;20229;-83
2024/01/04 11:55:33;;;;;;;3.93;2.20;;;;;;;13.36;52.40;97913.66;6973844;28;20226;-82
2024/01/04 11:59:06;;;;;;;2.47;1.70;;;;;;;12.99;54.04;97921.38;6971685;28;20224;-83
2024/01/04 12:02:27;;;;;;;3.00;1.80;;;;;;;12.88;54.83;97919.53;6947777;28;20242;-83
2024/01/04 12:05:51;;;;;;;2.30;2.00;;;;;;;12.36;55.03;97830.56;6956511;28;20360;-83
2024/01/04 12:09:15;;;;;;;2.93;1.93;;;;;;;12.24;55.97;97919.78;6970251;28;20230;-83
2024/01/04 12:12:40;;;;;;;2.10;1.90;;;;;;;12.74;55.00;97920.84;6972702;28;20206;-83
2024/01/04 12:16:05;;;;;;;3.17;2.83;;;;;;;12.45;56.01;97918.34;6964885;28;20780;-83
2024/01/04 12:19:27;;;;;;;2.80;2.40;;;;;;;13.09;54.96;97913.44;6961162;28;20672;-83
2024/01/04 12:22:48;;;;;;;5.10;2.10;;;;;;;13.40;53.08;97898.59;6978836;28;20289;-83
2024/01/04 12:26:10;;;;;;;2.53;1.90;;;;;;;14.27;51.94;97909.47;6978700;28;20253;-82
2024/01/04 12:29:32;;;;;;;1.93;1.70;;;;;;;13.64;50.26;97900.88;6988534;28;20257;-83
2024/01/04 12:32:56;;;;;;;3.43;2.17;;;;;;;14.32;50.40;97909.53;6982057;28;20289;-82
2024/01/04 12:36:22;;;;;;;2.77;2.20;;;;;;;14.79;49.01;97901.72;6980605;28;20259;-83
2024/01/04 12:39:44;;;;;;;2.53;1.70;;;;;;;14.03;48.55;97910.72;6973110;28;20604;-83
2024/01/04 12:43:06;;;;;;;3.53;1.87;;;;;;;13.72;49.98;97894.22;6980512;28;20206;-83
2024/01/04 12:46:28;;;;;;;4.23;2.70;;;;;;;14.36;48.89;97896.31;6980768;28;20267;-83
2024/01/04 12:49:56;;;;;;;3.77;2.13;;;;;;;14.28;48.50;97880.47;6979638;28;20712;-83
2024/01/04 12:53:17;;;;;;;5.33;2.20;;;;;;;14.47;47.51;97900.78;6979713;28;20212;-83
2024/01/04 12:56:39;;;;;;;4.30;2.53;;;;;;;14.74;46.15;97901.69;6979770;28;20203;-84
2024/01/04 13:00:00;;;;;;;5.20;1.97;;;;;;;15.06;46.25;97897.16;6971186;28;20313;-83
2024/01/04 13:03:22;;;;;;;3.93;2.00;;;;;;;15.04;45.98;97886.53;6976283;28;20211;-84
2024/01/04 13:06:45;;;;;;;3.17;2.17;;;;;;;14.74;46.01;97915.25;6975816;28;20321;-84
2024/01/04 13:10:08;;;;;;;6.87;1.97;;;;;;;14.39;45.29;97885.75;6976705;28;20229;-84
2024/01/04 13:13:30;;;;;;;3.77;2.00;;;;;;;14.66;45.14;97910.25;6979215;28;20685;-84
2024/01/04 13:16:53;;;;;;;4.67;2.07;;;;;;;14.43;46.50;97910.50;6981458;28;20236;-83
2024/01/04 13:20:14;;;;;;;3.70;2.00;;;;;;;14.66;45.92;97910.25;6981735;28;20230;-84
2024/01/04 13:23:37;;;;;;;3.57;2.07;;;;;;;14.54;46.04;97904.97;6973413;28;20218;-84
2024/01/04 13:26:59;;;;;;;3.10;2.20;;;;;;;14.37;45.76;97922.34;6973321;28;20234;-83
2024/01/04 13:30:23;;;;;;;4.97;2.00;;;;;;;14.72;45.40;97920.09;6979678;28;20329;-84
2024/01/04 13:33:44;;;;;;;2.90;2.00;;;;;;;14.69;45.40;97907.06;6980534;28;20207;-84
2024/01/04 13:37:06;;;;;;;6.83;2.23;;;;;;;14.09;44.95;97895.38;6978170;28;20226;-84
2024/01/04 13:40:29;;;;;;;4.30;2.00;;;;;;;13.80;45.75;97910.91;6978633;28;20264;-82
2024/01/04 13:43:50;;;;;;;3.80;2.67;;;;;;;14.06;44.63;97912.94;6978023;28;20341;-80
2024/01/04 13:47:12;;;;;;;7.77;2.73;;;;;;;13.90;44.87;97905.63;6978739;28;20795;-85
2024/01/04 13:50:34;;;;;;;4.07;3.07;;;;;;;13.71;45.72;97908.84;6978992;28;20699;-85
2024/01/04 13:53:55;;;;;;;6.30;3.13;;;;;;;14.18;44.47;97915.53;6979097;28;20233;-86
2024/01/04 13:57:18;;;;;;;3.47;2.17;;;;;;;14.68;43.68;97917.06;6977669;28;20269;-85
2024/01/04 14:00:40;;;;;;;7.07;2.27;;;;;;;14.53;44.26;97918.78;6966330;28;20265;-86
2024/01/04 14:04:01;;;;;;;4.50;2.37;;;;;;;14.09;44.67;97898.06;6971977;28;20240;-85
2024/01/04 14:07:25;;;;;;;4.57;2.43;;;;;;;14.83;44.25;97905.56;6980320;28;20227;-84
2024/01/04 14:15:16;;;;;;;7.00;2.37;;;;;;;13.85;44.80;97823.44;6859268;28;20642;-84
2024/01/04 14:36:16;;;;;;;6.73;2.50;;;;;;;12.50;46.59;97785.97;6731574;29;20200;-87
2024/01/04 14:39:55;;;;;;;5.67;2.63;;;;;;;13.59;45.80;97878.31;6701160;29;20268;-85
2024/01/04 14:56:03;;;;;;;4.83;2.40;;;;;;;13.96;46.82;97961.56;6979189;28;20194;-87
2024/01/04 15:25:47;;;;;;;7.60;3.27;;;;;;;13.20;48.02;97919.84;6914589;28;20666;-85
2024/01/04 15:29:24;;;;;;;21.20;10.07;;;;;;;12.38;47.80;97806.81;6916162;28;20238;-84
2024/01/04 15:32:47;;;;;;;4.63;2.43;;;;;;;13.02;48.38;97939.84;6916055;28;20309;-83
2024/01/04 15:36:09;;;;;;;4.83;2.40;;;;;;;13.33;47.88;97952.06;6917387;28;20257;-82
2024/01/04 15:39:31;;;;;;;3.73;2.20;;;;;;;13.10;48.68;97947.56;6925078;28;20218;-81
2024/01/04 15:42:55;;;;;;;2.60;2.40;;;;;;;13.27;48.21;97915.94;6936564;28;20260;-82
2024/01/04 15:46:16;;;;;;;3.53;2.20;;;;;;;13.43;47.30;97873.72;6941115;28;20250;-81
2024/01/04 15:49:38;;;;;;;2.57;2.23;;;;;;;13.39;48.08;97937.56;6944507;28;20219;-82
2024/01/04 15:52:59;;;;;;;3.80;2.20;;;;;;;13.63;47.47;97939.06;6952459;28;20251;-82
2024/01/04 15:56:22;;;;;;;2.20;2.00;;;;;;;13.36;48.46;97941.56;6937550;28;20264;-81
2024/01/04 15:59:45;;;;;;;4.23;2.30;;;;;;;13.65;47.67;97935.03;6938402;28;20224;-83
2024/01/04 16:03:07;;;;;;;5.13;2.50;;;;;;;13.52;48.26;97921.78;6921131;28;20277;-82
2024/01/04 16:06:28;;;;;;;3.87;2.40;;;;;;;13.51;48.03;97928.28;6934664;28;20321;-83
2024/01/04 16:09:50;;;;;;;11.77;5.50;;;;;;;13.27;48.36;97907.81;6949001;28;20269;-85
2024/01/04 16:13:17;;;;;;;7.20;3.70;;;;;;;12.95;49.16;97925.63;6947908;28;20241;-85
2024/01/04 16:20:54;;;;;;;3.90;2.60;;;;;;;13.38;48.43;97931.31;6843057;28;20230;-84
2024/01/04 16:24:15;;;;;;;4.07;2.20;;;;;;;13.30;49.00;97947.97;6837268;29;20300;-84
2024/01/04 16:27:37;;;;;;;2.90;2.30;;;;;;;13.32;48.76;97907.09;6837116;29;20233;-83
2024/01/04 16:31:14;;;;;;;8.27;4.50;;;;;;;13.58;48.00;97939.78;6838935;29;20276;-85
2024/01/04 16:34:35;;;;;;;6.60;6.00;;;;;;;13.56;48.56;97955.47;6834524;29;20227;-84
2024/01/04 16:37:58;;;;;;;41.27;23.37;;;;;;;13.76;47.98;97947.66;6836417;29;20274;-81
2024/01/04 16:41:20;;;;;;;8.63;4.00;;;;;;;13.65;47.92;97942.34;6835707;29;20261;-82
2024/01/04 17:10:38;;;;;;;6.37;4.20;;;;;;;12.13;51.75;97890.06;6920107;28;20303;-84
2024/01/04 17:26:10;;;;;;;6.63;4.80;;;;;;;12.18;52.37;97919.91;6799147;29;20210;-84
2024/01/04 17:29:31;;;;;;;10.17;5.10;;;;;;;12.21;52.89;97955.38;6829260;29;20715;-83
2024/01/04 17:32:53;;;;;;;6.20;3.30;;;;;;;11.92;53.99;97953.63;6826701;29;20804;-82
2024/01/04 17:36:15;;;;;;;5.77;3.07;;;;;;;12.47;52.32;97924.34;6834024;29;20205;-82
2024/01/04 17:39:36;;;;;;;4.50;2.63;;;;;;;12.62;52.38;97949.00;6816927;29;20304;-83
2024/01/04 17:42:59;;;;;;;7.10;3.10;;;;;;;12.77;51.91;97950.13;6835837;29;20306;-83
2024/01/04 17:46:21;;;;;;;4.33;3.07;;;;;;;12.88;51.38;97934.91;6834200;29;20357;-82
2024/01/04 17:49:45;;;;;;;5.40;2.80;;;;;;;12.76;51.70;97943.06;6834201;29;20392;-82
2024/01/04 17:53:06;;;;;;;5.50;2.97;;;;;;;12.77;51.21;97952.00;6835352;29;20198;-82
2024/01/04 17:56:28;;;;;;;6.93;3.33;;;;;;;12.66;52.01;97961.81;6835745;29;20294;-83
2024/01/04 17:59:50;;;;;;;4.20;3.53;;;;;;;12.87;51.46;97954.91;6834625;29;20256;-82
2024/01/04 18:03:12;;;;;;;5.87;3.70;;;;;;;12.61;52.01;97952.75;6834418;29;20245;-82
2024/01/04 18:06:33;;;;;;;3.80;3.10;;;;;;;12.46;52.63;97938.91;6820362;29;20250;-83
2024/01/04 18:09:55;;;;;;;5.17;3.33;;;;;;;12.65;52.45;97964.72;6807175;29;20764;-82
2024/01/04 18:13:16;;;;;;;6.53;3.43;;;;;;;12.67;52.50;97955.31;6807511;29;20214;-83
2024/01/04 18:16:40;;;;;;;6.37;3.23;;;;;;;12.61;52.94;97977.91;6815647;28;20237;-83
2024/01/04 18:20:02;;;;;;;5.23;3.63;;;;;;;12.82;52.09;97973.75;6919786;28;20234;-84